sensor_id;sensor_type;location;lat;lon;timestamp;P1;durP1;ratioP1;P2;durP2;ratioP2
7150;SDS011;3617;48.836;9.172;2022-10-16T00:00:35;1.60;;;1.50;;
7150;SDS011;3617;48.836;9.172;2022-10-16T00:03:02;3.77;;;1.70;;
7150;SDS011;3617;48.836;9.172;2022-10-16T00:05:28;3.50;;;1.67;;
7150;SDS011;3617;48.836;9.172;2022-10-16T00:07:54;1.70;;;1.37;;
7150;SDS011;3617;48.836;9.172;2022-10-16T00:10:20;2.73;;;1.87;;
7150;SDS011;3617;48.836;9.172;2022-10-16T00:12:46;2.27;;;1.50;;
7150;SDS011;3617;48.836;9.172;2022-10-16T00:15:13;5.43;;;1.67;;
7150;SDS011;3617;48.836;9.172;2022-10-16T00:17:39;2.10;;;1.57;;
7150;SDS011;3617;48.836;9.172;2022-10-16T00:20:05;2.90;;;1.57;;
7150;SDS011;3617;48.836;9.172;2022-10-16T00:22:32;2.27;;;1.60;;
7150;SDS011;3617;48.836;9.172;2022-10-16T00:24:58;3.53;;;1.73;;
7150;SDS011;3617;48.836;9.172;2022-10-16T00:27:24;4.53;;;1.80;;
7150;SDS011;3617;48.836;9.172;2022-10-16T00:29:50;3.57;;;2.00;;
7150;SDS011;3617;48.836;9.172;2022-10-16T00:32:17;2.03;;;1.63;;
7150;SDS011;3617;48.836;9.172;2022-10-16T00:34:43;5.23;;;1.60;;
7150;SDS011;3617;48.836;9.172;2022-10-16T00:37:09;3.50;;;1.57;;
7150;SDS011;3617;48.836;9.172;2022-10-16T00:39:35;3.80;;;1.70;;
7150;SDS011;3617;48.836;9.172;2022-10-16T00:42:01;6.87;;;2.00;;
7150;SDS011;3617;48.836;9.172;2022-10-16T00:47:34;2.60;;;1.97;;
7150;SDS011;3617;48.836;9.172;2022-10-16T00:50:11;2.43;;;1.70;;
7150;SDS011;3617;48.836;9.172;2022-10-16T00:52:39;3.67;;;2.13;;
7150;SDS011;3617;48.836;9.172;2022-10-16T00:55:07;2.13;;;1.67;;
7150;SDS011;3617;48.836;9.172;2022-10-16T00:57:34;2.20;;;1.80;;
7150;SDS011;3617;48.836;9.172;2022-10-16T01:00:01;3.10;;;1.63;;
7150;SDS011;3617;48.836;9.172;2022-10-16T01:02:27;9.30;;;1.73;;
7150;SDS011;3617;48.836;9.172;2022-10-16T01:04:53;2.67;;;1.60;;
7150;SDS011;3617;48.836;9.172;2022-10-16T01:10:10;2.27;;;1.90;;
7150;SDS011;3617;48.836;9.172;2022-10-16T01:12:40;2.70;;;1.70;;
7150;SDS011;3617;48.836;9.172;2022-10-16T01:15:12;2.87;;;1.73;;
7150;SDS011;3617;48.836;9.172;2022-10-16T01:17:51;4.37;;;1.97;;
7150;SDS011;3617;48.836;9.172;2022-10-16T01:20:21;3.57;;;1.97;;
7150;SDS011;3617;48.836;9.172;2022-10-16T01:28:19;3.23;;;1.90;;
7150;SDS011;3617;48.836;9.172;2022-10-16T01:30:47;2.97;;;2.40;;
7150;SDS011;3617;48.836;9.172;2022-10-16T01:33:19;5.77;;;2.20;;
7150;SDS011;3617;48.836;9.172;2022-10-16T01:35:47;3.03;;;2.20;;
7150;SDS011;3617;48.836;9.172;2022-10-16T01:38:16;2.30;;;1.70;;
7150;SDS011;3617;48.836;9.172;2022-10-16T01:40:45;4.60;;;2.23;;
7150;SDS011;3617;48.836;9.172;2022-10-16T01:43:12;2.20;;;1.90;;
7150;SDS011;3617;48.836;9.172;2022-10-16T01:45:40;1.97;;;1.73;;
7150;SDS011;3617;48.836;9.172;2022-10-16T01:48:06;3.57;;;1.87;;
7150;SDS011;3617;48.836;9.172;2022-10-16T01:50:35;2.27;;;1.83;;
7150;SDS011;3617;48.836;9.172;2022-10-16T01:53:02;2.43;;;1.63;;
7150;SDS011;3617;48.836;9.172;2022-10-16T01:55:30;2.73;;;1.57;;
7150;SDS011;3617;48.836;9.172;2022-10-16T01:57:58;4.50;;;2.10;;
7150;SDS011;3617;48.836;9.172;2022-10-16T02:00:25;2.60;;;1.93;;
7150;SDS011;3617;48.836;9.172;2022-10-16T02:02:52;5.13;;;1.80;;
7150;SDS011;3617;48.836;9.172;2022-10-16T02:07:48;3.00;;;2.00;;
7150;SDS011;3617;48.836;9.172;2022-10-16T02:10:15;3.57;;;1.90;;
7150;SDS011;3617;48.836;9.172;2022-10-16T02:12:42;2.97;;;1.70;;
7150;SDS011;3617;48.836;9.172;2022-10-16T02:15:09;3.00;;;2.10;;
7150;SDS011;3617;48.836;9.172;2022-10-16T02:17:35;2.47;;;1.87;;
7150;SDS011;3617;48.836;9.172;2022-10-16T02:20:01;2.53;;;1.93;;
7150;SDS011;3617;48.836;9.172;2022-10-16T02:24:58;2.30;;;1.80;;
7150;SDS011;3617;48.836;9.172;2022-10-16T02:27:41;2.13;;;1.73;;
7150;SDS011;3617;48.836;9.172;2022-10-16T02:30:32;2.43;;;1.80;;
7150;SDS011;3617;48.836;9.172;2022-10-16T02:32:55;4.07;;;1.70;;
7150;SDS011;3617;48.836;9.172;2022-10-16T02:35:24;2.90;;;2.07;;
7150;SDS011;3617;48.836;9.172;2022-10-16T02:37:52;1.93;;;1.67;;
7150;SDS011;3617;48.836;9.172;2022-10-16T02:40:18;4.00;;;2.20;;
7150;SDS011;3617;48.836;9.172;2022-10-16T02:42:44;2.07;;;1.60;;
7150;SDS011;3617;48.836;9.172;2022-10-16T02:45:10;4.10;;;1.70;;
7150;SDS011;3617;48.836;9.172;2022-10-16T02:47:37;2.60;;;1.70;;
7150;SDS011;3617;48.836;9.172;2022-10-16T02:50:03;2.90;;;1.90;;
7150;SDS011;3617;48.836;9.172;2022-10-16T02:52:29;3.93;;;2.10;;
7150;SDS011;3617;48.836;9.172;2022-10-16T02:54:55;6.33;;;1.70;;
7150;SDS011;3617;48.836;9.172;2022-10-16T02:57:21;2.70;;;1.63;;
7150;SDS011;3617;48.836;9.172;2022-10-16T02:59:47;2.67;;;1.70;;
7150;SDS011;3617;48.836;9.172;2022-10-16T03:02:13;1.93;;;1.67;;
7150;SDS011;3617;48.836;9.172;2022-10-16T03:04:39;10.30;;;2.00;;
7150;SDS011;3617;48.836;9.172;2022-10-16T03:07:05;3.30;;;1.80;;
7150;SDS011;3617;48.836;9.172;2022-10-16T03:09:32;2.97;;;2.20;;
7150;SDS011;3617;48.836;9.172;2022-10-16T03:11:58;4.70;;;2.00;;
7150;SDS011;3617;48.836;9.172;2022-10-16T03:14:24;2.60;;;1.90;;
7150;SDS011;3617;48.836;9.172;2022-10-16T03:16:50;2.63;;;2.10;;
7150;SDS011;3617;48.836;9.172;2022-10-16T03:19:16;4.83;;;1.77;;
7150;SDS011;3617;48.836;9.172;2022-10-16T03:21:43;2.07;;;1.80;;
7150;SDS011;3617;48.836;9.172;2022-10-16T03:24:09;3.20;;;1.80;;
7150;SDS011;3617;48.836;9.172;2022-10-16T03:26:35;3.60;;;1.80;;
7150;SDS011;3617;48.836;9.172;2022-10-16T03:29:01;2.17;;;1.73;;
7150;SDS011;3617;48.836;9.172;2022-10-16T03:31:28;2.20;;;1.80;;
7150;SDS011;3617;48.836;9.172;2022-10-16T03:33:54;2.70;;;1.87;;
7150;SDS011;3617;48.836;9.172;2022-10-16T03:36:20;2.10;;;1.83;;
7150;SDS011;3617;48.836;9.172;2022-10-16T03:38:46;1.87;;;1.70;;
7150;SDS011;3617;48.836;9.172;2022-10-16T03:41:12;2.17;;;1.87;;
7150;SDS011;3617;48.836;9.172;2022-10-16T03:43:38;3.20;;;2.10;;
7150;SDS011;3617;48.836;9.172;2022-10-16T03:46:04;2.33;;;1.70;;
7150;SDS011;3617;48.836;9.172;2022-10-16T03:48:30;3.00;;;1.90;;
7150;SDS011;3617;48.836;9.172;2022-10-16T03:50:57;2.50;;;1.90;;
7150;SDS011;3617;48.836;9.172;2022-10-16T03:53:23;4.70;;;1.90;;
7150;SDS011;3617;48.836;9.172;2022-10-16T03:55:49;2.10;;;1.70;;
7150;SDS011;3617;48.836;9.172;2022-10-16T03:58:15;2.20;;;1.70;;
7150;SDS011;3617;48.836;9.172;2022-10-16T04:00:42;1.73;;;1.63;;
7150;SDS011;3617;48.836;9.172;2022-10-16T04:03:08;3.10;;;2.20;;
7150;SDS011;3617;48.836;9.172;2022-10-16T04:05:34;2.67;;;1.90;;
7150;SDS011;3617;48.836;9.172;2022-10-16T04:08:00;2.23;;;2.03;;
7150;SDS011;3617;48.836;9.172;2022-10-16T04:10:26;2.67;;;1.97;;
7150;SDS011;3617;48.836;9.172;2022-10-16T04:12:53;3.27;;;2.00;;
7150;SDS011;3617;48.836;9.172;2022-10-16T04:15:24;3.03;;;2.00;;
7150;SDS011;3617;48.836;9.172;2022-10-16T04:17:51;4.50;;;1.97;;
7150;SDS011;3617;48.836;9.172;2022-10-16T04:20:17;2.37;;;1.60;;
7150;SDS011;3617;48.836;9.172;2022-10-16T04:22:43;2.10;;;1.87;;
7150;SDS011;3617;48.836;9.172;2022-10-16T04:25:10;3.97;;;2.10;;
7150;SDS011;3617;48.836;9.172;2022-10-16T04:27:37;3.67;;;1.73;;
7150;SDS011;3617;48.836;9.172;2022-10-16T04:30:03;2.13;;;1.93;;
7150;SDS011;3617;48.836;9.172;2022-10-16T04:32:29;3.40;;;1.73;;
7150;SDS011;3617;48.836;9.172;2022-10-16T04:34:55;2.80;;;1.90;;
7150;SDS011;3617;48.836;9.172;2022-10-16T04:37:24;3.40;;;1.50;;
7150;SDS011;3617;48.836;9.172;2022-10-16T04:39:50;2.70;;;2.03;;
7150;SDS011;3617;48.836;9.172;2022-10-16T04:42:17;2.37;;;1.93;;
7150;SDS011;3617;48.836;9.172;2022-10-16T04:44:42;6.57;;;1.73;;
7150;SDS011;3617;48.836;9.172;2022-10-16T04:47:08;2.20;;;1.97;;
7150;SDS011;3617;48.836;9.172;2022-10-16T04:49:35;2.57;;;1.97;;
7150;SDS011;3617;48.836;9.172;2022-10-16T04:52:01;2.37;;;2.10;;
7150;SDS011;3617;48.836;9.172;2022-10-16T04:54:27;3.87;;;1.67;;
7150;SDS011;3617;48.836;9.172;2022-10-16T04:56:53;4.57;;;2.30;;
7150;SDS011;3617;48.836;9.172;2022-10-16T04:59:19;2.73;;;1.83;;
7150;SDS011;3617;48.836;9.172;2022-10-16T05:01:45;4.03;;;2.10;;
7150;SDS011;3617;48.836;9.172;2022-10-16T05:04:11;5.73;;;2.00;;
7150;SDS011;3617;48.836;9.172;2022-10-16T05:06:38;2.10;;;1.63;;
7150;SDS011;3617;48.836;9.172;2022-10-16T05:09:04;1.70;;;1.50;;
7150;SDS011;3617;48.836;9.172;2022-10-16T05:11:31;3.27;;;1.83;;
7150;SDS011;3617;48.836;9.172;2022-10-16T05:13:57;4.13;;;2.00;;
7150;SDS011;3617;48.836;9.172;2022-10-16T05:16:23;2.67;;;1.87;;
7150;SDS011;3617;48.836;9.172;2022-10-16T05:18:50;2.93;;;2.20;;
7150;SDS011;3617;48.836;9.172;2022-10-16T05:21:16;2.43;;;1.90;;
7150;SDS011;3617;48.836;9.172;2022-10-16T05:23:42;2.77;;;2.10;;
7150;SDS011;3617;48.836;9.172;2022-10-16T05:26:09;2.63;;;1.90;;
7150;SDS011;3617;48.836;9.172;2022-10-16T05:28:35;3.20;;;2.10;;
7150;SDS011;3617;48.836;9.172;2022-10-16T05:31:04;3.03;;;2.40;;
7150;SDS011;3617;48.836;9.172;2022-10-16T05:33:31;2.73;;;2.10;;
7150;SDS011;3617;48.836;9.172;2022-10-16T05:36:00;2.43;;;1.70;;
7150;SDS011;3617;48.836;9.172;2022-10-16T05:38:27;2.17;;;1.90;;
7150;SDS011;3617;48.836;9.172;2022-10-16T05:40:53;2.83;;;1.63;;
7150;SDS011;3617;48.836;9.172;2022-10-16T05:43:19;2.90;;;1.90;;
7150;SDS011;3617;48.836;9.172;2022-10-16T05:45:56;2.00;;;1.80;;
7150;SDS011;3617;48.836;9.172;2022-10-16T05:48:22;2.03;;;1.77;;
7150;SDS011;3617;48.836;9.172;2022-10-16T05:50:48;3.87;;;2.20;;
7150;SDS011;3617;48.836;9.172;2022-10-16T05:53:14;5.87;;;1.93;;
7150;SDS011;3617;48.836;9.172;2022-10-16T05:55:40;2.67;;;1.90;;
7150;SDS011;3617;48.836;9.172;2022-10-16T05:58:06;2.80;;;2.00;;
7150;SDS011;3617;48.836;9.172;2022-10-16T06:00:32;3.87;;;2.00;;
7150;SDS011;3617;48.836;9.172;2022-10-16T06:02:58;2.57;;;1.90;;
7150;SDS011;3617;48.836;9.172;2022-10-16T06:05:24;2.37;;;1.90;;
7150;SDS011;3617;48.836;9.172;2022-10-16T06:07:51;3.73;;;2.00;;
7150;SDS011;3617;48.836;9.172;2022-10-16T06:10:17;2.83;;;2.03;;
7150;SDS011;3617;48.836;9.172;2022-10-16T06:12:43;2.00;;;1.70;;
7150;SDS011;3617;48.836;9.172;2022-10-16T06:15:09;2.80;;;2.17;;
7150;SDS011;3617;48.836;9.172;2022-10-16T06:17:35;2.53;;;1.80;;
7150;SDS011;3617;48.836;9.172;2022-10-16T06:20:01;2.30;;;2.00;;
7150;SDS011;3617;48.836;9.172;2022-10-16T06:22:27;4.07;;;2.10;;
7150;SDS011;3617;48.836;9.172;2022-10-16T06:24:53;2.20;;;1.80;;
7150;SDS011;3617;48.836;9.172;2022-10-16T06:27:19;2.97;;;2.03;;
7150;SDS011;3617;48.836;9.172;2022-10-16T06:29:45;4.03;;;2.07;;
7150;SDS011;3617;48.836;9.172;2022-10-16T06:32:11;2.07;;;1.87;;
7150;SDS011;3617;48.836;9.172;2022-10-16T06:34:37;4.07;;;2.03;;
7150;SDS011;3617;48.836;9.172;2022-10-16T06:37:05;2.30;;;2.00;;
7150;SDS011;3617;48.836;9.172;2022-10-16T06:39:31;2.57;;;2.17;;
7150;SDS011;3617;48.836;9.172;2022-10-16T06:41:57;2.63;;;2.30;;
7150;SDS011;3617;48.836;9.172;2022-10-16T06:44:23;2.33;;;2.00;;
7150;SDS011;3617;48.836;9.172;2022-10-16T06:46:49;6.13;;;2.63;;
7150;SDS011;3617;48.836;9.172;2022-10-16T06:49:16;4.03;;;2.00;;
7150;SDS011;3617;48.836;9.172;2022-10-16T06:51:46;5.47;;;2.10;;
7150;SDS011;3617;48.836;9.172;2022-10-16T06:54:12;4.13;;;2.17;;
7150;SDS011;3617;48.836;9.172;2022-10-16T06:56:38;5.00;;;2.10;;
7150;SDS011;3617;48.836;9.172;2022-10-16T06:59:04;1.90;;;1.70;;
7150;SDS011;3617;48.836;9.172;2022-10-16T07:01:30;1.73;;;1.63;;
7150;SDS011;3617;48.836;9.172;2022-10-16T07:03:56;3.30;;;2.13;;
7150;SDS011;3617;48.836;9.172;2022-10-16T07:06:23;4.87;;;2.10;;
7150;SDS011;3617;48.836;9.172;2022-10-16T07:08:50;3.00;;;1.90;;
7150;SDS011;3617;48.836;9.172;2022-10-16T07:11:17;3.03;;;1.90;;
7150;SDS011;3617;48.836;9.172;2022-10-16T07:13:43;2.47;;;1.70;;
7150;SDS011;3617;48.836;9.172;2022-10-16T07:16:13;3.50;;;2.23;;
7150;SDS011;3617;48.836;9.172;2022-10-16T07:18:40;4.83;;;1.90;;
7150;SDS011;3617;48.836;9.172;2022-10-16T07:21:08;4.00;;;2.40;;
7150;SDS011;3617;48.836;9.172;2022-10-16T07:23:34;3.37;;;2.03;;
7150;SDS011;3617;48.836;9.172;2022-10-16T07:26:00;3.87;;;2.20;;
7150;SDS011;3617;48.836;9.172;2022-10-16T07:28:27;5.80;;;1.90;;
7150;SDS011;3617;48.836;9.172;2022-10-16T07:30:53;3.73;;;2.03;;
7150;SDS011;3617;48.836;9.172;2022-10-16T07:33:20;4.10;;;2.10;;
7150;SDS011;3617;48.836;9.172;2022-10-16T07:35:52;2.83;;;1.90;;
7150;SDS011;3617;48.836;9.172;2022-10-16T07:38:19;2.07;;;1.57;;
7150;SDS011;3617;48.836;9.172;2022-10-16T07:40:45;3.20;;;1.90;;
7150;SDS011;3617;48.836;9.172;2022-10-16T07:43:11;2.97;;;1.70;;
7150;SDS011;3617;48.836;9.172;2022-10-16T07:45:37;3.70;;;2.20;;
7150;SDS011;3617;48.836;9.172;2022-10-16T07:48:04;3.10;;;2.30;;
7150;SDS011;3617;48.836;9.172;2022-10-16T07:50:30;3.43;;;2.63;;
7150;SDS011;3617;48.836;9.172;2022-10-16T07:52:56;3.43;;;2.53;;
7150;SDS011;3617;48.836;9.172;2022-10-16T07:55:22;3.77;;;2.30;;
7150;SDS011;3617;48.836;9.172;2022-10-16T07:57:48;4.67;;;3.10;;
7150;SDS011;3617;48.836;9.172;2022-10-16T08:00:14;3.27;;;2.10;;
7150;SDS011;3617;48.836;9.172;2022-10-16T08:02:40;3.37;;;2.30;;
7150;SDS011;3617;48.836;9.172;2022-10-16T08:05:06;6.33;;;2.37;;
7150;SDS011;3617;48.836;9.172;2022-10-16T08:07:32;4.20;;;2.10;;
7150;SDS011;3617;48.836;9.172;2022-10-16T08:09:58;2.47;;;2.07;;
7150;SDS011;3617;48.836;9.172;2022-10-16T08:12:25;2.40;;;1.80;;
7150;SDS011;3617;48.836;9.172;2022-10-16T08:14:51;4.93;;;1.90;;
7150;SDS011;3617;48.836;9.172;2022-10-16T08:17:17;3.47;;;1.77;;
7150;SDS011;3617;48.836;9.172;2022-10-16T08:19:44;3.25;;;1.70;;
7150;SDS011;3617;48.836;9.172;2022-10-16T08:22:10;2.15;;;1.60;;
7150;SDS011;3617;48.836;9.172;2022-10-16T08:24:36;2.38;;;1.45;;
7150;SDS011;3617;48.836;9.172;2022-10-16T08:27:02;3.78;;;1.70;;
7150;SDS011;3617;48.836;9.172;2022-10-16T08:29:28;3.83;;;1.70;;
7150;SDS011;3617;48.836;9.172;2022-10-16T08:31:54;1.85;;;1.27;;
7150;SDS011;3617;48.836;9.172;2022-10-16T08:34:20;3.35;;;1.75;;
7150;SDS011;3617;48.836;9.172;2022-10-16T08:36:46;1.63;;;1.40;;
7150;SDS011;3617;48.836;9.172;2022-10-16T08:39:12;5.57;;;1.63;;
7150;SDS011;3617;48.836;9.172;2022-10-16T08:44:31;2.05;;;1.20;;
7150;SDS011;3617;48.836;9.172;2022-10-16T08:47:17;2.30;;;1.60;;
7150;SDS011;3617;48.836;9.172;2022-10-16T08:49:47;4.53;;;1.75;;
7150;SDS011;3617;48.836;9.172;2022-10-16T08:52:16;2.55;;;1.70;;
7150;SDS011;3617;48.836;9.172;2022-10-16T08:54:42;1.55;;;1.42;;
7150;SDS011;3617;48.836;9.172;2022-10-16T08:57:11;2.20;;;1.50;;
7150;SDS011;3617;48.836;9.172;2022-10-16T08:59:37;3.00;;;1.65;;
7150;SDS011;3617;48.836;9.172;2022-10-16T09:02:08;1.92;;;1.70;;
7150;SDS011;3617;48.836;9.172;2022-10-16T09:07:24;5.35;;;2.08;;
7150;SDS011;3617;48.836;9.172;2022-10-16T09:10:07;6.72;;;1.48;;
7150;SDS011;3617;48.836;9.172;2022-10-16T09:12:39;2.88;;;1.50;;
7150;SDS011;3617;48.836;9.172;2022-10-16T09:15:24;1.80;;;1.38;;
7150;SDS011;3617;48.836;9.172;2022-10-16T09:18:04;2.10;;;1.55;;
7150;SDS011;3617;48.836;9.172;2022-10-16T09:20:34;3.35;;;1.70;;
7150;SDS011;3617;48.836;9.172;2022-10-16T09:25:30;2.33;;;1.40;;
7150;SDS011;3617;48.836;9.172;2022-10-16T09:27:57;3.53;;;1.40;;
7150;SDS011;3617;48.836;9.172;2022-10-16T09:30:22;2.08;;;1.30;;
7150;SDS011;3617;48.836;9.172;2022-10-16T09:32:52;1.45;;;1.35;;
7150;SDS011;3617;48.836;9.172;2022-10-16T09:36:04;1.75;;;1.33;;
7150;SDS011;3617;48.836;9.172;2022-10-16T09:38:05;3.72;;;1.58;;
7150;SDS011;3617;48.836;9.172;2022-10-16T09:40:38;3.38;;;1.38;;
7150;SDS011;3617;48.836;9.172;2022-10-16T09:48:25;2.30;;;1.65;;
7150;SDS011;3617;48.836;9.172;2022-10-16T09:50:55;2.45;;;1.35;;
7150;SDS011;3617;48.836;9.172;2022-10-16T09:53:22;2.20;;;1.42;;
7150;SDS011;3617;48.836;9.172;2022-10-16T09:55:48;3.28;;;1.20;;
7150;SDS011;3617;48.836;9.172;2022-10-16T09:58:15;1.88;;;1.23;;
7150;SDS011;3617;48.836;9.172;2022-10-16T10:00:41;1.83;;;1.25;;
7150;SDS011;3617;48.836;9.172;2022-10-16T10:03:10;3.20;;;1.67;;
7150;SDS011;3617;48.836;9.172;2022-10-16T10:05:37;3.05;;;1.40;;
7150;SDS011;3617;48.836;9.172;2022-10-16T10:08:04;3.55;;;1.40;;
7150;SDS011;3617;48.836;9.172;2022-10-16T10:10:33;2.60;;;1.30;;
7150;SDS011;3617;48.836;9.172;2022-10-16T10:13:00;3.55;;;1.85;;
7150;SDS011;3617;48.836;9.172;2022-10-16T10:15:27;3.35;;;1.90;;
7150;SDS011;3617;48.836;9.172;2022-10-16T10:17:55;2.17;;;1.58;;
7150;SDS011;3617;48.836;9.172;2022-10-16T10:20:34;2.00;;;1.60;;
7150;SDS011;3617;48.836;9.172;2022-10-16T10:23:19;1.92;;;1.10;;
7150;SDS011;3617;48.836;9.172;2022-10-16T10:38:41;1.63;;;1.05;;
7150;SDS011;3617;48.836;9.172;2022-10-16T10:41:19;2.28;;;1.13;;
7150;SDS011;3617;48.836;9.172;2022-10-16T10:43:56;1.60;;;1.30;;
7150;SDS011;3617;48.836;9.172;2022-10-16T10:46:32;1.73;;;1.35;;
7150;SDS011;3617;48.836;9.172;2022-10-16T10:49:06;1.20;;;1.10;;
7150;SDS011;3617;48.836;9.172;2022-10-16T10:54:13;2.47;;;1.10;;
7150;SDS011;3617;48.836;9.172;2022-10-16T11:01:35;2.88;;;1.30;;
7150;SDS011;3617;48.836;9.172;2022-10-16T11:06:49;1.55;;;1.35;;
7150;SDS011;3617;48.836;9.172;2022-10-16T11:11:53;2.65;;;1.30;;
7150;SDS011;3617;48.836;9.172;2022-10-16T11:14:24;3.78;;;1.20;;
7150;SDS011;3617;48.836;9.172;2022-10-16T11:16:53;3.08;;;1.20;;
7150;SDS011;3617;48.836;9.172;2022-10-16T11:24:53;3.72;;;1.27;;
7150;SDS011;3617;48.836;9.172;2022-10-16T11:27:33;2.65;;;0.90;;
7150;SDS011;3617;48.836;9.172;2022-10-16T11:30:01;1.55;;;0.95;;
7150;SDS011;3617;48.836;9.172;2022-10-16T11:32:32;1.40;;;1.25;;
7150;SDS011;3617;48.836;9.172;2022-10-16T11:35:02;1.20;;;1.10;;
7150;SDS011;3617;48.836;9.172;2022-10-16T11:37:31;2.20;;;1.00;;
7150;SDS011;3617;48.836;9.172;2022-10-16T11:39:59;1.48;;;1.20;;
7150;SDS011;3617;48.836;9.172;2022-10-16T11:42:36;0.85;;;0.82;;
7150;SDS011;3617;48.836;9.172;2022-10-16T11:47:37;2.05;;;1.10;;
7150;SDS011;3617;48.836;9.172;2022-10-16T11:50:17;1.90;;;1.00;;
7150;SDS011;3617;48.836;9.172;2022-10-16T11:52:49;5.65;;;1.20;;
7150;SDS011;3617;48.836;9.172;2022-10-16T11:55:19;1.98;;;1.20;;
7150;SDS011;3617;48.836;9.172;2022-10-16T11:57:47;1.90;;;1.15;;
7150;SDS011;3617;48.836;9.172;2022-10-16T12:00:20;1.60;;;1.30;;
7150;SDS011;3617;48.836;9.172;2022-10-16T12:02:56;2.50;;;1.10;;
7150;SDS011;3617;48.836;9.172;2022-10-16T12:08:12;1.52;;;1.10;;
7150;SDS011;3617;48.836;9.172;2022-10-16T12:10:39;6.18;;;1.27;;
7150;SDS011;3617;48.836;9.172;2022-10-16T12:15:51;2.97;;;1.00;;
7150;SDS011;3617;48.836;9.172;2022-10-16T12:18:20;4.30;;;1.23;;
7150;SDS011;3617;48.836;9.172;2022-10-16T12:20:53;1.77;;;1.10;;
7150;SDS011;3617;48.836;9.172;2022-10-16T12:23:23;1.20;;;1.00;;
7150;SDS011;3617;48.836;9.172;2022-10-16T12:25:54;1.35;;;1.00;;
7150;SDS011;3617;48.836;9.172;2022-10-16T12:28:21;1.30;;;1.13;;
7150;SDS011;3617;48.836;9.172;2022-10-16T12:30:54;1.20;;;0.90;;
7150;SDS011;3617;48.836;9.172;2022-10-16T12:33:22;1.10;;;1.00;;
7150;SDS011;3617;48.836;9.172;2022-10-16T12:35:49;1.73;;;1.30;;
7150;SDS011;3617;48.836;9.172;2022-10-16T12:38:17;1.10;;;0.95;;
7150;SDS011;3617;48.836;9.172;2022-10-16T12:40:44;4.35;;;1.00;;
7150;SDS011;3617;48.836;9.172;2022-10-16T12:43:23;1.50;;;1.23;;
7150;SDS011;3617;48.836;9.172;2022-10-16T12:46:00;1.17;;;1.08;;
7150;SDS011;3617;48.836;9.172;2022-10-16T12:48:26;1.73;;;1.10;;
7150;SDS011;3617;48.836;9.172;2022-10-16T12:50:53;1.90;;;1.20;;
7150;SDS011;3617;48.836;9.172;2022-10-16T12:53:20;1.70;;;1.27;;
7150;SDS011;3617;48.836;9.172;2022-10-16T12:55:52;1.70;;;1.20;;
7150;SDS011;3617;48.836;9.172;2022-10-16T12:58:27;2.85;;;1.30;;
7150;SDS011;3617;48.836;9.172;2022-10-16T13:01:02;1.40;;;1.15;;
7150;SDS011;3617;48.836;9.172;2022-10-16T13:03:34;2.58;;;1.10;;
7150;SDS011;3617;48.836;9.172;2022-10-16T13:08:40;2.15;;;1.05;;
7150;SDS011;3617;48.836;9.172;2022-10-16T13:11:15;1.70;;;1.20;;
7150;SDS011;3617;48.836;9.172;2022-10-16T13:21:24;2.53;;;1.30;;
7150;SDS011;3617;48.836;9.172;2022-10-16T13:29:05;1.35;;;1.20;;
7150;SDS011;3617;48.836;9.172;2022-10-16T13:31:32;3.17;;;1.30;;
7150;SDS011;3617;48.836;9.172;2022-10-16T13:33:59;2.13;;;1.60;;
7150;SDS011;3617;48.836;9.172;2022-10-16T13:36:27;1.90;;;1.45;;
7150;SDS011;3617;48.836;9.172;2022-10-16T13:41:38;3.38;;;1.10;;
7150;SDS011;3617;48.836;9.172;2022-10-16T13:44:04;1.67;;;1.40;;
7150;SDS011;3617;48.836;9.172;2022-10-16T13:46:31;1.10;;;1.00;;
7150;SDS011;3617;48.836;9.172;2022-10-16T13:51:28;1.55;;;1.20;;
7150;SDS011;3617;48.836;9.172;2022-10-16T13:53:55;4.80;;;1.40;;
7150;SDS011;3617;48.836;9.172;2022-10-16T13:56:22;4.70;;;1.00;;
7150;SDS011;3617;48.836;9.172;2022-10-16T13:59:03;2.63;;;1.40;;
7150;SDS011;3617;48.836;9.172;2022-10-16T14:01:34;1.40;;;1.13;;
7150;SDS011;3617;48.836;9.172;2022-10-16T14:04:05;3.05;;;1.27;;
7150;SDS011;3617;48.836;9.172;2022-10-16T14:06:32;2.10;;;1.60;;
7150;SDS011;3617;48.836;9.172;2022-10-16T14:08:59;5.05;;;1.55;;
7150;SDS011;3617;48.836;9.172;2022-10-16T14:11:27;1.65;;;1.33;;
7150;SDS011;3617;48.836;9.172;2022-10-16T14:13:53;3.97;;;1.40;;
7150;SDS011;3617;48.836;9.172;2022-10-16T14:16:21;1.38;;;1.27;;
7150;SDS011;3617;48.836;9.172;2022-10-16T14:18:56;1.45;;;1.35;;
7150;SDS011;3617;48.836;9.172;2022-10-16T14:21:22;2.85;;;1.10;;
7150;SDS011;3617;48.836;9.172;2022-10-16T14:23:49;3.65;;;1.40;;
7150;SDS011;3617;48.836;9.172;2022-10-16T14:26:17;3.65;;;1.77;;
7150;SDS011;3617;48.836;9.172;2022-10-16T14:28:44;1.83;;;1.52;;
7150;SDS011;3617;48.836;9.172;2022-10-16T14:34:04;5.15;;;1.80;;
7150;SDS011;3617;48.836;9.172;2022-10-16T14:36:30;2.72;;;1.50;;
7150;SDS011;3617;48.836;9.172;2022-10-16T14:39:02;2.70;;;1.40;;
7150;SDS011;3617;48.836;9.172;2022-10-16T14:41:30;2.60;;;1.58;;
7150;SDS011;3617;48.836;9.172;2022-10-16T14:43:57;1.80;;;1.42;;
7150;SDS011;3617;48.836;9.172;2022-10-16T14:46:32;2.30;;;1.10;;
7150;SDS011;3617;48.836;9.172;2022-10-16T14:49:00;2.05;;;1.73;;
7150;SDS011;3617;48.836;9.172;2022-10-16T14:51:27;1.40;;;1.30;;
7150;SDS011;3617;48.836;9.172;2022-10-16T14:53:53;2.42;;;1.30;;
7150;SDS011;3617;48.836;9.172;2022-10-16T14:56:21;1.58;;;1.48;;
7150;SDS011;3617;48.836;9.172;2022-10-16T14:58:49;3.05;;;1.67;;
7150;SDS011;3617;48.836;9.172;2022-10-16T15:01:15;1.60;;;1.50;;
7150;SDS011;3617;48.836;9.172;2022-10-16T15:03:44;2.20;;;1.52;;
7150;SDS011;3617;48.836;9.172;2022-10-16T15:06:14;2.33;;;1.50;;
7150;SDS011;3617;48.836;9.172;2022-10-16T15:08:43;3.58;;;1.80;;
7150;SDS011;3617;48.836;9.172;2022-10-16T15:11:15;4.40;;;1.90;;
7150;SDS011;3617;48.836;9.172;2022-10-16T15:13:42;2.53;;;2.03;;
7150;SDS011;3617;48.836;9.172;2022-10-16T15:16:10;2.97;;;2.25;;
7150;SDS011;3617;48.836;9.172;2022-10-16T15:18:37;4.13;;;1.75;;
7150;SDS011;3617;48.836;9.172;2022-10-16T15:21:03;2.05;;;1.60;;
7150;SDS011;3617;48.836;9.172;2022-10-16T15:23:29;3.45;;;2.00;;
7150;SDS011;3617;48.836;9.172;2022-10-16T15:25:55;3.50;;;1.83;;
7150;SDS011;3617;48.836;9.172;2022-10-16T15:28:22;2.92;;;1.63;;
7150;SDS011;3617;48.836;9.172;2022-10-16T15:30:49;4.10;;;1.77;;
7150;SDS011;3617;48.836;9.172;2022-10-16T15:33:17;1.85;;;1.60;;
7150;SDS011;3617;48.836;9.172;2022-10-16T15:35:46;2.85;;;1.50;;
7150;SDS011;3617;48.836;9.172;2022-10-16T15:38:13;3.83;;;1.60;;
7150;SDS011;3617;48.836;9.172;2022-10-16T15:40:39;5.28;;;1.92;;
7150;SDS011;3617;48.836;9.172;2022-10-16T15:43:06;2.65;;;1.55;;
7150;SDS011;3617;48.836;9.172;2022-10-16T15:45:32;2.20;;;1.40;;
7150;SDS011;3617;48.836;9.172;2022-10-16T15:47:58;2.40;;;1.83;;
7150;SDS011;3617;48.836;9.172;2022-10-16T15:50:25;2.22;;;1.48;;
7150;SDS011;3617;48.836;9.172;2022-10-16T15:52:51;2.38;;;1.58;;
7150;SDS011;3617;48.836;9.172;2022-10-16T15:55:17;6.15;;;1.88;;
7150;SDS011;3617;48.836;9.172;2022-10-16T15:57:44;4.40;;;1.90;;
7150;SDS011;3617;48.836;9.172;2022-10-16T16:00:13;3.45;;;2.15;;
7150;SDS011;3617;48.836;9.172;2022-10-16T16:02:48;3.72;;;2.17;;
7150;SDS011;3617;48.836;9.172;2022-10-16T16:05:15;2.78;;;2.38;;
7150;SDS011;3617;48.836;9.172;2022-10-16T16:07:41;4.22;;;2.17;;
7150;SDS011;3617;48.836;9.172;2022-10-16T16:10:07;3.92;;;2.00;;
7150;SDS011;3617;48.836;9.172;2022-10-16T16:12:34;2.47;;;1.77;;
7150;SDS011;3617;48.836;9.172;2022-10-16T16:15:00;3.22;;;2.17;;
7150;SDS011;3617;48.836;9.172;2022-10-16T16:17:26;7.32;;;2.15;;
7150;SDS011;3617;48.836;9.172;2022-10-16T16:19:52;2.35;;;1.90;;
7150;SDS011;3617;48.836;9.172;2022-10-16T16:22:19;2.83;;;1.67;;
7150;SDS011;3617;48.836;9.172;2022-10-16T16:24:45;3.92;;;1.90;;
7150;SDS011;3617;48.836;9.172;2022-10-16T16:27:11;3.80;;;1.75;;
7150;SDS011;3617;48.836;9.172;2022-10-16T16:29:38;5.22;;;1.80;;
7150;SDS011;3617;48.836;9.172;2022-10-16T16:32:05;4.43;;;1.80;;
7150;SDS011;3617;48.836;9.172;2022-10-16T16:34:31;2.25;;;1.90;;
7150;SDS011;3617;48.836;9.172;2022-10-16T16:36:57;2.50;;;1.92;;
7150;SDS011;3617;48.836;9.172;2022-10-16T16:39:23;4.97;;;1.85;;
7150;SDS011;3617;48.836;9.172;2022-10-16T16:41:49;1.98;;;1.80;;
7150;SDS011;3617;48.836;9.172;2022-10-16T16:44:15;3.67;;;1.95;;
7150;SDS011;3617;48.836;9.172;2022-10-16T16:46:42;2.28;;;1.75;;
7150;SDS011;3617;48.836;9.172;2022-10-16T16:49:09;5.75;;;2.28;;
7150;SDS011;3617;48.836;9.172;2022-10-16T16:51:36;3.25;;;1.98;;